createdAt,value
2018-11-25T00:02:08.366Z,17.80
2018-11-25T00:04:51.872Z,17.80
2018-11-25T00:07:25.526Z,17.80
2018-11-25T00:09:54.919Z,17.70
2018-11-25T00:12:33.936Z,17.80
2018-11-25T00:15:03.845Z,17.80
2018-11-25T00:17:33.799Z,17.80
2018-11-25T00:20:16.577Z,17.80
2018-11-25T00:22:45.939Z,17.80
2018-11-25T00:25:15.700Z,17.70
2018-11-25T00:27:57.493Z,17.80
2018-11-25T00:30:26.888Z,17.80
2018-11-25T00:32:56.232Z,17.80
2018-11-25T00:35:39.483Z,17.80
2018-11-25T00:38:09.556Z,17.80
2018-11-25T00:40:38.885Z,17.80
2018-11-25T00:43:21.340Z,17.80
2018-11-25T00:45:50.662Z,17.80
2018-11-25T00:48:20.070Z,17.80
2018-11-25T00:51:05.699Z,17.80
2018-11-25T00:53:35.031Z,17.80
2018-11-25T00:56:04.451Z,17.80
2018-11-25T00:58:45.624Z,17.80
2018-11-25T01:01:15.142Z,17.80
2018-11-25T01:03:44.575Z,17.80
2018-11-25T01:06:27.246Z,17.80
2018-11-25T01:08:57.235Z,17.80
2018-11-25T01:11:26.550Z,17.80
2018-11-25T01:14:09.377Z,17.80
2018-11-25T01:16:39.313Z,17.80
2018-11-25T01:19:08.752Z,17.80
2018-11-25T01:21:53.198Z,17.70
2018-11-25T01:24:23.105Z,17.70
2018-11-25T01:26:52.527Z,17.70
2018-11-25T01:29:35.411Z,17.70
2018-11-25T01:32:04.825Z,17.70
2018-11-25T01:34:34.321Z,17.70
2018-11-25T01:37:16.649Z,17.70
2018-11-25T01:39:46.047Z,17.70
2018-11-25T01:42:15.408Z,17.70
2018-11-25T01:44:57.579Z,17.80
2018-11-25T01:47:27.007Z,17.70
2018-11-25T01:49:56.414Z,17.70
2018-11-25T01:52:39.338Z,17.80
2018-11-25T01:55:10.501Z,17.80
2018-11-25T01:57:39.899Z,17.80
2018-11-25T02:00:22.049Z,17.80
2018-11-25T02:02:51.751Z,17.70
2018-11-25T02:05:21.130Z,17.80
2018-11-25T02:08:03.371Z,17.80
2018-11-25T02:10:32.814Z,17.70
2018-11-25T02:13:02.185Z,17.70
2018-11-25T02:15:47.559Z,17.70
2018-11-25T02:18:16.923Z,17.70
2018-11-25T02:20:52.418Z,17.70
2018-11-25T02:23:28.680Z,17.70
2018-11-25T02:25:58.123Z,17.70
2018-11-25T02:28:27.834Z,17.70
2018-11-25T02:31:10.122Z,17.70
2018-11-25T02:33:39.452Z,17.70
2018-11-25T02:36:08.837Z,17.70
2018-11-25T02:38:52.260Z,17.70
2018-11-25T02:41:22.119Z,17.70
2018-11-25T02:43:51.530Z,17.70
2018-11-25T02:46:33.354Z,17.70
2018-11-25T02:49:02.783Z,17.70
2018-11-25T02:51:32.127Z,17.70
2018-11-25T02:54:16.647Z,17.70
2018-11-25T02:56:46.567Z,17.70
2018-11-25T02:59:16.018Z,17.70
2018-11-25T03:01:57.312Z,17.70
2018-11-25T03:04:26.869Z,17.70
2018-11-25T03:06:56.240Z,17.70
2018-11-25T03:09:39.317Z,17.70
2018-11-25T03:12:08.661Z,17.70
2018-11-25T03:14:38.035Z,17.70
2018-11-25T03:17:21.299Z,17.70
2018-11-25T03:19:50.696Z,17.70
2018-11-25T03:22:20.086Z,17.70
2018-11-25T03:25:04.082Z,17.70
2018-11-25T03:27:33.415Z,17.70
2018-11-25T03:30:02.556Z,17.70
2018-11-25T03:32:45.298Z,17.70
2018-11-25T03:35:14.848Z,17.70
2018-11-25T03:37:44.214Z,17.70
2018-11-25T03:40:27.059Z,17.70
2018-11-25T03:42:56.962Z,17.70
2018-11-25T03:45:26.300Z,17.70
2018-11-25T03:48:08.655Z,17.70
2018-11-25T03:50:37.976Z,17.70
2018-11-25T03:53:25.677Z,17.70
2018-11-25T03:56:02.982Z,17.70
2018-11-25T03:58:32.381Z,17.70
2018-11-25T04:01:19.378Z,17.70
2018-11-25T04:03:49.478Z,17.70
2018-11-25T04:06:19.402Z,17.60
2018-11-25T04:09:03.258Z,17.70
2018-11-25T04:11:32.702Z,17.70
2018-11-25T04:14:01.972Z,17.70
2018-11-25T04:16:45.703Z,17.70
2018-11-25T04:19:15.150Z,17.70
2018-11-25T04:21:44.526Z,17.70
2018-11-25T04:24:28.738Z,17.70
2018-11-25T04:26:58.122Z,17.70
2018-11-25T04:29:27.538Z,17.70
2018-11-25T04:32:10.104Z,17.70
2018-11-25T04:34:39.428Z,17.70
2018-11-25T04:37:09.756Z,17.70
2018-11-25T04:39:52.102Z,17.60
2018-11-25T04:42:21.488Z,17.60
2018-11-25T04:44:51.562Z,17.60
2018-11-25T04:47:32.819Z,17.60
2018-11-25T04:50:02.194Z,17.60
2018-11-25T04:52:31.567Z,17.60
2018-11-25T04:55:15.840Z,17.60
2018-11-25T04:57:47.359Z,17.60
2018-11-25T05:00:16.731Z,17.60
2018-11-25T05:02:58.138Z,17.60
2018-11-25T05:05:27.554Z,17.60
2018-11-25T05:07:57.255Z,17.60
2018-11-25T05:10:39.977Z,17.60
2018-11-25T05:13:09.395Z,17.60
2018-11-25T05:15:38.874Z,17.60
2018-11-25T05:18:21.274Z,17.60
2018-11-25T05:20:50.690Z,17.60
2018-11-25T05:23:20.093Z,17.60
2018-11-25T05:26:03.238Z,17.60
2018-11-25T05:28:32.585Z,17.60
2018-11-25T05:31:01.956Z,17.60
2018-11-25T05:33:45.319Z,17.60
2018-11-25T05:36:18.973Z,17.60
2018-11-25T05:41:58.083Z,17.60
2018-11-25T05:44:45.165Z,17.60
2018-11-25T05:47:14.536Z,17.60
2018-11-25T05:49:43.875Z,17.60
2018-11-25T05:52:29.031Z,17.60
2018-11-25T05:54:58.423Z,17.60
2018-11-25T05:57:27.758Z,17.60
2018-11-25T06:00:14.792Z,17.60
2018-11-25T06:02:44.286Z,17.60
2018-11-25T06:05:13.687Z,17.60
2018-11-25T06:07:51.866Z,17.60
2018-11-25T06:10:21.370Z,17.60
2018-11-25T06:12:50.733Z,17.70
2018-11-25T06:15:32.463Z,17.80
2018-11-25T06:18:01.863Z,17.90
2018-11-25T06:20:31.271Z,18.00
2018-11-25T06:23:14.922Z,18.10
2018-11-25T06:25:46.330Z,18.10
2018-11-25T06:28:15.694Z,18.20
2018-11-25T06:30:57.351Z,18.20
2018-11-25T06:33:26.726Z,18.30
2018-11-25T06:35:56.113Z,18.30
2018-11-25T06:38:39.256Z,18.30
2018-11-25T06:41:08.600Z,18.30
2018-11-25T06:43:38.033Z,18.30
2018-11-25T06:46:21.915Z,18.30
2018-11-25T06:48:55.043Z,18.30
2018-11-25T06:51:20.663Z,18.30
2018-11-25T06:54:03.926Z,18.30
2018-11-25T06:56:33.313Z,18.30
2018-11-25T06:59:03.260Z,18.30
2018-11-25T07:01:45.317Z,18.30
2018-11-25T07:04:14.698Z,18.30
2018-11-25T07:06:44.096Z,18.30
2018-11-25T07:09:27.252Z,18.30
2018-11-25T07:11:56.660Z,18.30
2018-11-25T07:14:26.073Z,18.20
2018-11-25T07:17:08.902Z,18.20
2018-11-25T07:19:38.271Z,18.20
2018-11-25T07:22:07.682Z,18.20
2018-11-25T07:24:50.656Z,18.20
2018-11-25T07:27:20.150Z,18.20
2018-11-25T07:29:50.034Z,18.20
2018-11-25T07:32:33.503Z,18.20
2018-11-25T07:35:02.857Z,18.20
2018-11-25T07:37:32.230Z,18.20
2018-11-25T07:40:16.516Z,18.10
2018-11-25T07:42:45.892Z,18.10
2018-11-25T07:45:17.692Z,18.10
2018-11-25T07:47:57.854Z,18.10
2018-11-25T07:50:27.272Z,18.10
2018-11-25T07:52:56.918Z,18.10
2018-11-25T07:55:39.398Z,18.10
2018-11-25T07:58:08.819Z,18.10
2018-11-25T08:00:38.410Z,18.10
2018-11-25T08:03:22.403Z,18.10
2018-11-25T08:05:51.886Z,18.10
2018-11-25T08:08:21.330Z,18.10
2018-11-25T08:11:07.422Z,18.10
2018-11-25T08:13:36.770Z,18.10
2018-11-25T08:16:06.748Z,18.10
2018-11-25T08:18:45.938Z,18.10
2018-11-25T08:21:15.297Z,18.10
2018-11-25T08:23:44.395Z,18.10
2018-11-25T08:26:27.561Z,18.10
2018-11-25T08:28:56.921Z,18.20
2018-11-25T08:31:26.866Z,18.10
2018-11-25T08:34:10.021Z,18.20
2018-11-25T08:36:39.370Z,18.20
2018-11-25T08:39:09.258Z,18.20
2018-11-25T08:41:51.761Z,18.20
2018-11-25T08:44:21.145Z,18.20
2018-11-25T08:46:51.055Z,18.20
2018-11-25T08:49:33.962Z,18.20
2018-11-25T08:52:03.314Z,18.20
2018-11-25T08:54:33.298Z,18.10
2018-11-25T08:57:15.877Z,17.90
2018-11-25T08:59:45.279Z,17.70
2018-11-25T09:02:14.624Z,17.50
2018-11-25T09:05:01.574Z,17.00
2018-11-25T09:07:30.990Z,16.50
2018-11-25T09:10:00.654Z,16.10
2018-11-25T09:12:40.507Z,15.80
2018-11-25T09:15:13.649Z,15.50
2018-11-25T09:17:43.145Z,15.30
2018-11-25T09:20:22.167Z,15.40
2018-11-25T09:22:52.558Z,15.60
2018-11-25T09:25:27.253Z,15.90
2018-11-25T09:28:04.743Z,16.10
2018-11-25T09:30:34.326Z,16.30
2018-11-25T09:33:03.834Z,16.50
2018-11-25T09:35:46.010Z,16.60
2018-11-25T09:38:15.415Z,16.70
2018-11-25T09:40:44.865Z,16.80
2018-11-25T09:43:28.195Z,16.90
2018-11-25T09:45:57.614Z,17.00
2018-11-25T09:48:27.075Z,17.00
2018-11-25T09:51:09.606Z,17.10
2018-11-25T09:53:39.099Z,17.20
2018-11-25T09:56:08.601Z,17.20
2018-11-25T09:58:51.179Z,17.30
2018-11-25T10:01:20.563Z,17.30
2018-11-25T10:03:50.082Z,17.30
2018-11-25T10:06:33.401Z,17.30
2018-11-25T10:09:02.924Z,17.40
2018-11-25T10:11:32.623Z,17.40
2018-11-25T10:14:14.766Z,17.40
2018-11-25T10:16:45.726Z,17.40
2018-11-25T10:19:15.136Z,17.40
2018-11-25T10:21:57.450Z,17.40
2018-11-25T10:24:26.539Z,17.40
2018-11-25T10:26:56.016Z,17.40
2018-11-25T10:29:39.499Z,17.40
2018-11-25T10:32:09.615Z,17.50
2018-11-25T10:34:38.976Z,17.40
2018-11-25T10:37:21.891Z,17.40
2018-11-25T10:39:51.298Z,17.50
2018-11-25T10:42:21.336Z,17.40
2018-11-25T10:45:04.471Z,17.50
2018-11-25T10:47:33.627Z,17.50
2018-11-25T10:50:03.662Z,17.50
2018-11-25T10:52:45.647Z,17.50
2018-11-25T10:55:16.315Z,17.50
2018-11-25T10:57:46.625Z,17.60
2018-11-25T11:00:34.902Z,17.60
2018-11-25T11:03:10.978Z,17.60
2018-11-25T11:09:33.782Z,17.70
2018-11-25T11:12:03.191Z,17.80
2018-11-25T11:14:45.375Z,17.80
2018-11-25T11:17:15.334Z,17.80
2018-11-25T11:19:44.886Z,17.90
2018-11-25T11:22:27.232Z,17.90
2018-11-25T11:24:56.666Z,17.90
2018-11-25T11:27:26.071Z,17.90
2018-11-25T11:30:09.015Z,17.90
2018-11-25T11:32:41.091Z,17.90
2018-11-25T11:35:10.864Z,17.90
2018-11-25T11:37:51.762Z,17.90
2018-11-25T11:40:21.172Z,17.90
2018-11-25T11:42:50.592Z,18.00
2018-11-25T11:45:33.478Z,18.00
2018-11-25T11:48:02.882Z,18.00
2018-11-25T11:50:33.006Z,18.00
2018-11-25T11:53:02.404Z,18.00
2018-11-25T11:55:32.289Z,18.00
2018-11-25T11:58:02.364Z,18.00
2018-11-25T12:00:32.205Z,18.00
2018-11-25T12:03:01.659Z,18.00
2018-11-25T12:05:31.030Z,18.00
2018-11-25T12:08:00.390Z,18.00
2018-11-25T12:10:29.830Z,18.00
2018-11-25T12:12:59.290Z,18.00
2018-11-25T12:15:31.387Z,18.00
2018-11-25T12:18:01.587Z,18.00
2018-11-25T12:20:31.813Z,18.00
2018-11-25T12:23:11.708Z,18.00
2018-11-25T12:25:41.108Z,18.00
2018-11-25T12:28:11.068Z,18.00
2018-11-25T12:30:42.813Z,18.00
2018-11-25T12:33:12.413Z,18.00
2018-11-25T12:35:42.442Z,18.00
2018-11-25T12:38:12.443Z,18.00
2018-11-25T12:40:43.040Z,18.00
2018-11-25T12:43:15.905Z,18.00
2018-11-25T12:45:45.880Z,18.00
2018-11-25T12:48:24.099Z,18.10
2018-11-25T12:50:53.590Z,18.10
2018-11-25T12:53:23.894Z,18.10
2018-11-25T12:55:55.030Z,18.10
2018-11-25T12:58:25.018Z,18.10
2018-11-25T13:00:55.781Z,18.10
2018-11-25T13:03:25.264Z,18.10
2018-11-25T13:05:54.654Z,18.10
2018-11-25T13:08:24.715Z,18.10
2018-11-25T13:10:54.250Z,18.10
2018-11-25T13:13:26.599Z,18.10
2018-11-25T13:15:57.566Z,18.10
2018-11-25T13:18:27.274Z,18.10
2018-11-25T13:21:04.442Z,18.10
2018-11-25T13:23:34.318Z,18.10
2018-11-25T13:26:04.955Z,18.10
2018-11-25T13:28:34.700Z,18.10
2018-11-25T13:31:04.468Z,18.10
2018-11-25T13:33:34.269Z,18.00
2018-11-25T13:36:04.979Z,18.00
2018-11-25T13:38:41.490Z,18.00
2018-11-25T13:41:11.175Z,18.00
2018-11-25T13:43:41.687Z,18.10
2018-11-25T13:46:11.756Z,18.10
2018-11-25T13:48:41.436Z,18.10
2018-11-25T13:51:12.270Z,18.10
2018-11-25T13:53:42.222Z,18.10
2018-11-25T13:56:11.794Z,18.10
2018-11-25T13:58:41.290Z,18.10
2018-11-25T14:01:11.199Z,18.10
2018-11-25T14:03:47.556Z,18.10
2018-11-25T14:06:18.277Z,18.10
2018-11-25T14:08:51.793Z,18.10
2018-11-25T14:11:24.071Z,18.10
2018-11-25T14:13:53.644Z,18.10
2018-11-25T14:16:23.406Z,18.10
2018-11-25T14:18:53.491Z,18.10
2018-11-25T14:21:22.943Z,18.10
2018-11-25T14:23:53.065Z,18.10
2018-11-25T14:26:26.122Z,18.00
2018-11-25T14:29:03.722Z,18.10
2018-11-25T14:31:33.159Z,18.10
2018-11-25T14:34:02.533Z,18.00
2018-11-25T14:36:33.846Z,18.00
2018-11-25T14:39:03.902Z,18.00
2018-11-25T14:41:33.051Z,18.00
2018-11-25T14:44:03.249Z,18.00
2018-11-25T14:46:32.638Z,18.00
2018-11-25T14:49:02.073Z,18.00
2018-11-25T14:51:31.508Z,18.00
2018-11-25T14:54:01.503Z,18.00
2018-11-25T14:56:30.923Z,18.00
2018-11-25T14:59:00.909Z,18.00
2018-11-25T15:01:30.798Z,17.90
2018-11-25T15:04:00.260Z,17.90
2018-11-25T15:06:29.888Z,17.90
2018-11-25T15:08:59.342Z,17.90
2018-11-25T15:11:28.522Z,17.90
2018-11-25T15:13:57.946Z,17.90
2018-11-25T15:16:27.451Z,17.90
2018-11-25T15:18:57.491Z,17.90
2018-11-25T15:21:27.003Z,17.90
2018-11-25T15:23:56.398Z,17.90
2018-11-25T15:26:25.910Z,17.90
2018-11-25T15:32:07.329Z,17.90
2018-11-25T15:34:38.441Z,17.80
2018-11-25T15:37:13.849Z,17.80
2018-11-25T15:39:43.237Z,17.80
2018-11-25T15:42:12.863Z,17.80
2018-11-25T15:44:47.461Z,17.80
2018-11-25T15:47:16.926Z,17.80
2018-11-25T15:49:46.935Z,17.90
2018-11-25T15:52:16.424Z,17.90
2018-11-25T15:54:47.402Z,17.90
2018-11-25T15:57:16.809Z,17.90
2018-11-25T15:59:46.198Z,18.00
2018-11-25T16:02:16.113Z,18.00
2018-11-25T16:04:46.529Z,18.00
2018-11-25T16:07:15.925Z,18.00
2018-11-25T16:09:45.913Z,18.00
2018-11-25T16:12:16.289Z,18.00
2018-11-25T16:14:46.749Z,18.00
2018-11-25T16:17:26.820Z,18.00
2018-11-25T16:19:56.272Z,18.00
2018-11-25T16:22:25.715Z,18.10
2018-11-25T16:24:55.998Z,18.10
2018-11-25T16:27:25.416Z,18.10
2018-11-25T16:29:55.064Z,18.10
2018-11-25T16:32:25.189Z,18.10
2018-11-25T16:34:55.144Z,18.00
2018-11-25T16:37:24.517Z,18.00
2018-11-25T16:39:54.126Z,18.00
2018-11-25T16:42:23.508Z,18.00
2018-11-25T16:44:53.059Z,18.00
2018-11-25T16:47:22.539Z,18.00
2018-11-25T16:49:52.151Z,18.00
2018-11-25T16:52:21.676Z,18.00
2018-11-25T16:54:51.151Z,18.00
2018-11-25T16:57:20.586Z,18.00
2018-11-25T16:59:49.979Z,18.00
2018-11-25T17:02:19.366Z,18.00
2018-11-25T17:04:48.887Z,17.90
2018-11-25T17:07:18.375Z,18.00
2018-11-25T17:09:47.896Z,18.00
2018-11-25T17:12:17.442Z,18.10
2018-11-25T17:14:47.001Z,18.10
2018-11-25T17:17:18.279Z,18.20
2018-11-25T17:19:50.917Z,18.20
2018-11-25T17:22:20.389Z,18.20
2018-11-25T17:24:50.308Z,18.30
2018-11-25T17:27:19.788Z,18.30
2018-11-25T17:29:49.186Z,18.30
2018-11-25T17:32:19.835Z,18.30
2018-11-25T17:35:07.001Z,18.40
2018-11-25T17:37:36.439Z,18.40
2018-11-25T17:40:07.219Z,18.40
2018-11-25T17:42:36.621Z,18.40
2018-11-25T17:45:10.428Z,18.50
2018-11-25T17:47:39.962Z,18.50
2018-11-25T17:50:25.415Z,18.50
2018-11-25T17:56:20.183Z,18.50
2018-11-25T17:58:54.128Z,18.50
2018-11-25T18:01:27.874Z,18.50
2018-11-25T18:04:10.419Z,18.50
2018-11-25T18:09:11.446Z,18.50
2018-11-25T18:11:40.845Z,18.50
2018-11-25T18:14:13.419Z,18.50
2018-11-25T18:16:43.439Z,18.50
2018-11-25T18:19:21.181Z,18.50
2018-11-25T18:22:02.470Z,18.50
2018-11-25T18:24:31.967Z,18.50
2018-11-25T18:27:06.547Z,18.60
2018-11-25T18:29:36.527Z,18.60
2018-11-25T18:32:10.515Z,18.60
2018-11-25T18:34:40.019Z,18.60
2018-11-25T18:37:09.153Z,18.60
2018-11-25T18:39:38.649Z,18.60
2018-11-25T18:42:07.753Z,18.60
2018-11-25T18:44:37.747Z,18.60
2018-11-25T18:47:07.917Z,18.60
2018-11-25T18:49:37.365Z,18.60
2018-11-25T18:52:08.953Z,18.70
2018-11-25T18:54:46.665Z,18.70
2018-11-25T18:57:17.087Z,18.70
2018-11-25T18:59:50.604Z,18.80
2018-11-25T19:02:23.500Z,18.80
2018-11-25T19:04:57.948Z,18.90
2018-11-25T19:07:27.884Z,18.90
2018-11-25T19:09:57.347Z,18.90
2018-11-25T19:12:26.770Z,18.80
2018-11-25T19:14:56.828Z,18.90
2018-11-25T19:17:26.212Z,18.90
2018-11-25T19:19:55.658Z,18.80
2018-11-25T19:22:25.047Z,18.90
2018-11-25T19:24:54.467Z,18.90
2018-11-25T19:27:23.993Z,18.90
2018-11-25T19:29:53.501Z,18.90
2018-11-25T19:32:23.021Z,18.80
2018-11-25T19:34:52.425Z,18.90
2018-11-25T19:37:22.565Z,18.90
2018-11-25T19:39:51.983Z,18.90
2018-11-25T19:42:21.421Z,18.90
2018-11-25T19:44:50.830Z,18.90
2018-11-25T19:47:20.983Z,18.80
2018-11-25T19:49:50.373Z,18.90
2018-11-25T19:52:19.858Z,18.90
2018-11-25T19:54:49.918Z,18.90
2018-11-25T19:57:26.059Z,18.90
2018-11-25T20:00:00.850Z,18.80
2018-11-25T20:02:30.278Z,18.90
2018-11-25T20:05:00.215Z,18.80
2018-11-25T20:07:29.667Z,18.80
2018-11-25T20:09:59.197Z,18.80
2018-11-25T20:12:34.551Z,18.80
2018-11-25T20:15:04.910Z,18.80
2018-11-25T20:17:53.742Z,18.80
2018-11-25T20:20:15.508Z,18.80
2018-11-25T20:22:48.015Z,18.80
2018-11-25T20:25:18.445Z,18.80
2018-11-25T20:27:53.061Z,18.80
2018-11-25T20:30:27.905Z,18.80
2018-11-25T20:33:02.589Z,18.80
2018-11-25T20:35:32.260Z,18.80
2018-11-25T20:38:12.325Z,18.80
2018-11-25T20:40:43.462Z,18.80
2018-11-25T20:43:12.890Z,18.80
2018-11-25T20:45:50.296Z,18.80
2018-11-25T20:48:19.748Z,18.80
2018-11-25T20:50:50.350Z,18.80
2018-11-25T20:53:25.175Z,18.80
2018-11-25T20:56:02.764Z,18.80
2018-11-25T20:58:32.772Z,18.80
2018-11-25T21:01:02.231Z,18.90
2018-11-25T21:03:32.055Z,18.90
2018-11-25T21:06:01.616Z,18.90
2018-11-25T21:08:31.032Z,18.90
2018-11-25T21:11:04.760Z,18.90
2018-11-25T21:26:02.331Z,18.80
2018-11-25T21:28:31.824Z,18.80
2018-11-25T21:31:01.435Z,18.80
2018-11-25T21:33:31.490Z,18.80
2018-11-25T21:36:00.939Z,18.80
2018-11-25T21:38:30.329Z,18.80
2018-11-25T21:40:59.748Z,18.80
2018-11-25T21:43:29.199Z,18.80
2018-11-25T21:45:59.314Z,18.80
2018-11-25T21:48:28.725Z,18.80
2018-11-25T21:50:58.123Z,18.80
2018-11-25T21:53:27.569Z,18.80
2018-11-25T21:55:56.929Z,18.80
2018-11-25T21:58:28.811Z,18.80
2018-11-25T22:00:56.806Z,18.80
2018-11-25T22:03:29.049Z,18.80
2018-11-25T22:05:58.493Z,18.80
2018-11-25T22:08:28.671Z,18.80
2018-11-25T22:10:58.088Z,18.80
2018-11-25T22:13:33.106Z,18.80
2018-11-25T22:16:02.594Z,18.80
2018-11-25T22:18:39.543Z,18.80
2018-11-25T22:21:08.969Z,18.80
2018-11-25T22:23:43.156Z,18.80
2018-11-25T22:26:18.236Z,18.80
2018-11-25T22:28:48.561Z,18.80
2018-11-25T22:31:18.531Z,18.80
2018-11-25T22:33:54.346Z,18.80
2018-11-25T22:36:23.794Z,18.90
2018-11-25T22:39:00.182Z,18.90
2018-11-25T22:41:29.848Z,18.90
2018-11-25T22:44:03.052Z,18.90
2018-11-25T22:46:32.491Z,18.90
2018-11-25T22:49:08.461Z,18.80
2018-11-25T22:51:37.849Z,18.80
2018-11-25T22:54:13.179Z,18.80
2018-11-25T22:56:43.107Z,18.90
2018-11-25T22:59:19.395Z,18.90
2018-11-25T23:01:48.855Z,18.90
2018-11-25T23:05:30.178Z,18.80
2018-11-25T23:07:59.659Z,18.90
2018-11-25T23:10:29.593Z,18.80
2018-11-25T23:12:59.049Z,18.90
2018-11-25T23:15:35.261Z,18.90
2018-11-25T23:18:04.760Z,18.90
2018-11-25T23:20:38.778Z,18.90
2018-11-25T23:23:08.193Z,18.80
2018-11-25T23:25:45.699Z,18.80
2018-11-25T23:28:15.053Z,18.90
2018-11-25T23:30:49.154Z,18.90
2018-11-25T23:33:18.587Z,18.90
2018-11-25T23:35:53.899Z,18.90
2018-11-25T23:38:23.293Z,18.90
2018-11-25T23:40:58.901Z,18.90
2018-11-25T23:46:39.227Z,18.90
2018-11-25T23:49:08.579Z,18.90
2018-11-25T23:51:37.997Z,18.90
2018-11-25T23:54:12.395Z,18.90
2018-11-25T23:56:41.871Z,18.90
2018-11-25T23:59:17.178Z,18.90
